Aviation Digital Data Service (ADDS)

Output produced by METARs form (1210 UTC 15 November 2018)
found at http://www.aviationweather.gov/metar/data/
 
TAF TFFR 151100Z 1512/1612 10010KT 9999 SCT025 SCT055 
     PROB30 
     TEMPO 1512/1515 4000 SHRA SCT018TCU 
     PROB30 
     TEMPO 1605/1612 4000 SHRA SCT018TCU